sensor_id;sensor_type;location;lat;lon;timestamp;P1;durP1;ratioP1;P2;durP2;ratioP2
11481;SDS011;5797;51.662;6.748;2022-08-19T00:00:42;10.67;;;9.57;;
11481;SDS011;5797;51.662;6.748;2022-08-19T00:03:10;10.23;;;9.23;;
11481;SDS011;5797;51.662;6.748;2022-08-19T00:05:38;11.33;;;9.40;;
11481;SDS011;5797;51.662;6.748;2022-08-19T00:08:06;11.77;;;9.70;;
11481;SDS011;5797;51.662;6.748;2022-08-19T00:10:34;11.07;;;9.40;;
11481;SDS011;5797;51.662;6.748;2022-08-19T00:13:03;10.37;;;9.27;;
11481;SDS011;5797;51.662;6.748;2022-08-19T00:15:31;10.33;;;9.27;;
11481;SDS011;5797;51.662;6.748;2022-08-19T00:17:59;10.50;;;9.40;;
11481;SDS011;5797;51.662;6.748;2022-08-19T00:20:27;10.60;;;9.60;;
11481;SDS011;5797;51.662;6.748;2022-08-19T00:22:55;10.80;;;9.70;;
11481;SDS011;5797;51.662;6.748;2022-08-19T00:25:23;11.03;;;9.90;;
11481;SDS011;5797;51.662;6.748;2022-08-19T00:27:55;10.10;;;9.03;;
11481;SDS011;5797;51.662;6.748;2022-08-19T00:30:25;10.47;;;9.37;;
11481;SDS011;5797;51.662;6.748;2022-08-19T00:32:53;12.37;;;9.50;;
11481;SDS011;5797;51.662;6.748;2022-08-19T00:35:24;10.67;;;9.60;;
11481;SDS011;5797;51.662;6.748;2022-08-19T00:37:53;10.87;;;9.63;;
11481;SDS011;5797;51.662;6.748;2022-08-19T00:40:22;10.23;;;9.13;;
11481;SDS011;5797;51.662;6.748;2022-08-19T00:42:51;15.30;;;9.10;;
11481;SDS011;5797;51.662;6.748;2022-08-19T00:45:21;12.83;;;9.30;;
11481;SDS011;5797;51.662;6.748;2022-08-19T00:47:52;9.87;;;8.87;;
11481;SDS011;5797;51.662;6.748;2022-08-19T00:50:20;10.13;;;9.10;;
11481;SDS011;5797;51.662;6.748;2022-08-19T00:52:50;12.23;;;9.10;;
11481;SDS011;5797;51.662;6.748;2022-08-19T00:55:19;10.23;;;9.20;;
11481;SDS011;5797;51.662;6.748;2022-08-19T00:57:50;12.20;;;9.73;;
11481;SDS011;5797;51.662;6.748;2022-08-19T01:00:22;10.37;;;8.83;;
11481;SDS011;5797;51.662;6.748;2022-08-19T01:02:53;11.57;;;9.20;;
11481;SDS011;5797;51.662;6.748;2022-08-19T01:05:22;10.77;;;9.27;;
11481;SDS011;5797;51.662;6.748;2022-08-19T01:07:53;10.17;;;9.03;;
11481;SDS011;5797;51.662;6.748;2022-08-19T01:10:24;9.60;;;8.53;;
11481;SDS011;5797;51.662;6.748;2022-08-19T01:12:57;9.23;;;8.03;;
11481;SDS011;5797;51.662;6.748;2022-08-19T01:15:27;9.10;;;8.20;;
11481;SDS011;5797;51.662;6.748;2022-08-19T01:17:59;10.00;;;9.00;;
11481;SDS011;5797;51.662;6.748;2022-08-19T01:20:29;11.60;;;8.77;;
11481;SDS011;5797;51.662;6.748;2022-08-19T01:22:58;11.97;;;8.90;;
11481;SDS011;5797;51.662;6.748;2022-08-19T01:25:28;9.73;;;8.73;;
11481;SDS011;5797;51.662;6.748;2022-08-19T01:27:57;9.43;;;8.40;;
11481;SDS011;5797;51.662;6.748;2022-08-19T01:30:28;8.70;;;7.67;;
11481;SDS011;5797;51.662;6.748;2022-08-19T01:32:58;10.00;;;8.83;;
11481;SDS011;5797;51.662;6.748;2022-08-19T01:35:27;10.13;;;8.53;;
11481;SDS011;5797;51.662;6.748;2022-08-19T01:38:00;11.30;;;8.67;;
11481;SDS011;5797;51.662;6.748;2022-08-19T01:40:35;9.30;;;8.40;;
11481;SDS011;5797;51.662;6.748;2022-08-19T01:43:06;11.33;;;8.80;;
11481;SDS011;5797;51.662;6.748;2022-08-19T01:45:34;12.53;;;8.90;;
11481;SDS011;5797;51.662;6.748;2022-08-19T01:48:03;9.80;;;8.37;;
11481;SDS011;5797;51.662;6.748;2022-08-19T01:50:32;12.40;;;9.07;;
11481;SDS011;5797;51.662;6.748;2022-08-19T01:53:03;10.77;;;9.10;;
11481;SDS011;5797;51.662;6.748;2022-08-19T01:55:35;9.77;;;8.77;;
11481;SDS011;5797;51.662;6.748;2022-08-19T01:58:06;9.87;;;8.67;;
11481;SDS011;5797;51.662;6.748;2022-08-19T02:00:36;9.63;;;8.63;;
11481;SDS011;5797;51.662;6.748;2022-08-19T02:03:05;8.93;;;8.03;;
11481;SDS011;5797;51.662;6.748;2022-08-19T02:05:33;10.40;;;9.30;;
11481;SDS011;5797;51.662;6.748;2022-08-19T02:08:00;10.47;;;8.97;;
11481;SDS011;5797;51.662;6.748;2022-08-19T02:10:30;8.97;;;8.17;;
11481;SDS011;5797;51.662;6.748;2022-08-19T02:12:58;12.63;;;9.10;;
11481;SDS011;5797;51.662;6.748;2022-08-19T02:15:26;10.53;;;8.93;;
11481;SDS011;5797;51.662;6.748;2022-08-19T02:17:54;10.63;;;9.03;;
11481;SDS011;5797;51.662;6.748;2022-08-19T02:20:22;10.13;;;8.57;;
11481;SDS011;5797;51.662;6.748;2022-08-19T02:22:50;10.30;;;9.20;;
11481;SDS011;5797;51.662;6.748;2022-08-19T02:25:20;11.10;;;8.53;;
11481;SDS011;5797;51.662;6.748;2022-08-19T02:27:48;13.43;;;9.13;;
11481;SDS011;5797;51.662;6.748;2022-08-19T02:30:16;9.80;;;8.80;;
11481;SDS011;5797;51.662;6.748;2022-08-19T02:32:45;9.67;;;8.57;;
11481;SDS011;5797;51.662;6.748;2022-08-19T02:35:13;12.33;;;8.90;;
11481;SDS011;5797;51.662;6.748;2022-08-19T02:37:42;9.33;;;8.33;;
11481;SDS011;5797;51.662;6.748;2022-08-19T02:40:29;10.57;;;9.00;;
11481;SDS011;5797;51.662;6.748;2022-08-19T02:43:00;9.20;;;8.27;;
11481;SDS011;5797;51.662;6.748;2022-08-19T02:45:31;9.47;;;8.43;;
11481;SDS011;5797;51.662;6.748;2022-08-19T02:47:59;10.23;;;8.33;;
11481;SDS011;5797;51.662;6.748;2022-08-19T02:50:27;9.80;;;8.50;;
11481;SDS011;5797;51.662;6.748;2022-08-19T02:52:55;8.93;;;8.03;;
11481;SDS011;5797;51.662;6.748;2022-08-19T02:55:23;10.13;;;8.47;;
11481;SDS011;5797;51.662;6.748;2022-08-19T02:57:53;10.20;;;8.70;;
11481;SDS011;5797;51.662;6.748;2022-08-19T03:00:23;10.43;;;8.10;;
11481;SDS011;5797;51.662;6.748;2022-08-19T03:02:51;9.83;;;8.73;;
11481;SDS011;5797;51.662;6.748;2022-08-19T03:05:19;13.20;;;8.63;;
11481;SDS011;5797;51.662;6.748;2022-08-19T03:07:50;11.00;;;8.50;;
11481;SDS011;5797;51.662;6.748;2022-08-19T03:10:18;10.07;;;8.27;;
11481;SDS011;5797;51.662;6.748;2022-08-19T03:12:46;12.00;;;8.50;;
11481;SDS011;5797;51.662;6.748;2022-08-19T03:15:16;9.77;;;7.93;;
11481;SDS011;5797;51.662;6.748;2022-08-19T03:17:44;9.80;;;8.43;;
11481;SDS011;5797;51.662;6.748;2022-08-19T03:20:13;9.60;;;8.60;;
11481;SDS011;5797;51.662;6.748;2022-08-19T03:22:41;11.50;;;8.97;;
11481;SDS011;5797;51.662;6.748;2022-08-19T03:25:09;10.50;;;8.80;;
11481;SDS011;5797;51.662;6.748;2022-08-19T03:27:38;10.63;;;9.20;;
11481;SDS011;5797;51.662;6.748;2022-08-19T03:30:06;10.57;;;9.47;;
11481;SDS011;5797;51.662;6.748;2022-08-19T03:32:38;11.87;;;9.30;;
11481;SDS011;5797;51.662;6.748;2022-08-19T03:35:07;12.10;;;9.67;;
11481;SDS011;5797;51.662;6.748;2022-08-19T03:37:35;10.13;;;8.57;;
11481;SDS011;5797;51.662;6.748;2022-08-19T03:40:03;10.63;;;8.70;;
11481;SDS011;5797;51.662;6.748;2022-08-19T03:42:34;10.03;;;9.00;;
11481;SDS011;5797;51.662;6.748;2022-08-19T03:45:10;11.73;;;8.97;;
11481;SDS011;5797;51.662;6.748;2022-08-19T03:47:40;11.13;;;9.20;;
11481;SDS011;5797;51.662;6.748;2022-08-19T03:50:08;10.33;;;8.57;;
11481;SDS011;5797;51.662;6.748;2022-08-19T03:52:36;12.27;;;9.30;;
11481;SDS011;5797;51.662;6.748;2022-08-19T03:55:04;10.23;;;9.20;;
11481;SDS011;5797;51.662;6.748;2022-08-19T03:57:33;11.37;;;9.10;;
11481;SDS011;5797;51.662;6.748;2022-08-19T04:00:02;11.67;;;8.63;;
11481;SDS011;5797;51.662;6.748;2022-08-19T04:02:40;11.03;;;9.10;;
11481;SDS011;5797;51.662;6.748;2022-08-19T04:05:21;10.53;;;9.10;;
11481;SDS011;5797;51.662;6.748;2022-08-19T04:07:50;10.20;;;9.07;;
11481;SDS011;5797;51.662;6.748;2022-08-19T04:10:18;13.07;;;9.57;;
11481;SDS011;5797;51.662;6.748;2022-08-19T04:12:46;11.40;;;8.27;;
11481;SDS011;5797;51.662;6.748;2022-08-19T04:15:14;9.37;;;8.27;;
11481;SDS011;5797;51.662;6.748;2022-08-19T04:17:43;13.60;;;8.40;;
11481;SDS011;5797;51.662;6.748;2022-08-19T04:20:11;11.33;;;9.03;;
11481;SDS011;5797;51.662;6.748;2022-08-19T04:22:39;10.37;;;8.67;;
11481;SDS011;5797;51.662;6.748;2022-08-19T04:25:07;10.53;;;8.97;;
11481;SDS011;5797;51.662;6.748;2022-08-19T04:27:35;9.43;;;7.93;;
11481;SDS011;5797;51.662;6.748;2022-08-19T04:30:03;11.27;;;8.87;;
11481;SDS011;5797;51.662;6.748;2022-08-19T04:32:32;10.37;;;8.47;;
11481;SDS011;5797;51.662;6.748;2022-08-19T04:35:03;13.13;;;8.80;;
11481;SDS011;5797;51.662;6.748;2022-08-19T04:37:44;10.23;;;8.03;;
11481;SDS011;5797;51.662;6.748;2022-08-19T04:40:12;10.37;;;8.43;;
11481;SDS011;5797;51.662;6.748;2022-08-19T04:43:06;9.10;;;8.00;;
11481;SDS011;5797;51.662;6.748;2022-08-19T04:45:35;9.50;;;7.97;;
11481;SDS011;5797;51.662;6.748;2022-08-19T04:48:05;9.63;;;8.00;;
11481;SDS011;5797;51.662;6.748;2022-08-19T04:50:46;10.90;;;8.57;;
11481;SDS011;5797;51.662;6.748;2022-08-19T04:53:14;12.13;;;8.80;;
11481;SDS011;5797;51.662;6.748;2022-08-19T04:55:43;11.73;;;8.80;;
11481;SDS011;5797;51.662;6.748;2022-08-19T04:58:11;10.53;;;8.37;;
11481;SDS011;5797;51.662;6.748;2022-08-19T05:00:39;10.40;;;9.27;;
11481;SDS011;5797;51.662;6.748;2022-08-19T05:03:07;11.93;;;8.63;;
11481;SDS011;5797;51.662;6.748;2022-08-19T05:05:37;10.40;;;8.57;;
11481;SDS011;5797;51.662;6.748;2022-08-19T05:08:11;9.77;;;8.70;;
11481;SDS011;5797;51.662;6.748;2022-08-19T05:10:39;12.57;;;8.40;;
11481;SDS011;5797;51.662;6.748;2022-08-19T05:13:07;12.07;;;8.93;;
11481;SDS011;5797;51.662;6.748;2022-08-19T05:15:37;11.83;;;9.17;;
11481;SDS011;5797;51.662;6.748;2022-08-19T05:18:05;10.70;;;8.70;;
11481;SDS011;5797;51.662;6.748;2022-08-19T05:20:50;20.53;;;9.40;;
11481;SDS011;5797;51.662;6.748;2022-08-19T05:23:37;26.70;;;10.50;;
11481;SDS011;5797;51.662;6.748;2022-08-19T05:26:04;11.37;;;9.27;;
11481;SDS011;5797;51.662;6.748;2022-08-19T05:28:32;24.97;;;9.90;;
11481;SDS011;5797;51.662;6.748;2022-08-19T05:31:00;12.27;;;9.43;;
11481;SDS011;5797;51.662;6.748;2022-08-19T05:33:28;11.03;;;9.47;;
11481;SDS011;5797;51.662;6.748;2022-08-19T05:35:57;14.23;;;9.90;;
11481;SDS011;5797;51.662;6.748;2022-08-19T05:38:25;14.03;;;8.70;;
11481;SDS011;5797;51.662;6.748;2022-08-19T05:40:55;10.47;;;8.63;;
11481;SDS011;5797;51.662;6.748;2022-08-19T05:43:23;14.97;;;10.17;;
11481;SDS011;5797;51.662;6.748;2022-08-19T05:45:51;13.30;;;11.13;;
11481;SDS011;5797;51.662;6.748;2022-08-19T05:48:19;13.13;;;9.93;;
11481;SDS011;5797;51.662;6.748;2022-08-19T05:50:47;14.40;;;9.73;;
11481;SDS011;5797;51.662;6.748;2022-08-19T05:53:16;19.63;;;10.00;;
11481;SDS011;5797;51.662;6.748;2022-08-19T05:55:45;15.10;;;10.57;;
11481;SDS011;5797;51.662;6.748;2022-08-19T05:58:14;12.30;;;10.00;;
11481;SDS011;5797;51.662;6.748;2022-08-19T06:00:42;12.27;;;10.70;;
11481;SDS011;5797;51.662;6.748;2022-08-19T06:03:11;21.27;;;10.27;;
11481;SDS011;5797;51.662;6.748;2022-08-19T06:05:39;16.40;;;11.63;;
11481;SDS011;5797;51.662;6.748;2022-08-19T06:08:12;15.03;;;10.97;;
11481;SDS011;5797;51.662;6.748;2022-08-19T06:10:40;18.77;;;10.77;;
11481;SDS011;5797;51.662;6.748;2022-08-19T06:13:08;11.93;;;10.13;;
11481;SDS011;5797;51.662;6.748;2022-08-19T06:15:37;13.07;;;10.87;;
11481;SDS011;5797;51.662;6.748;2022-08-19T06:18:05;12.03;;;10.43;;
11481;SDS011;5797;51.662;6.748;2022-08-19T06:20:33;11.70;;;10.00;;
11481;SDS011;5797;51.662;6.748;2022-08-19T06:23:20;14.10;;;10.30;;
11481;SDS011;5797;51.662;6.748;2022-08-19T06:25:49;14.10;;;11.13;;
11481;SDS011;5797;51.662;6.748;2022-08-19T06:28:17;16.60;;;11.63;;
11481;SDS011;5797;51.662;6.748;2022-08-19T06:30:47;15.80;;;12.43;;
11481;SDS011;5797;51.662;6.748;2022-08-19T06:33:14;18.03;;;13.43;;
11481;SDS011;5797;51.662;6.748;2022-08-19T06:35:42;18.67;;;14.57;;
11481;SDS011;5797;51.662;6.748;2022-08-19T06:38:11;18.47;;;13.60;;
11481;SDS011;5797;51.662;6.748;2022-08-19T06:40:39;20.77;;;14.57;;
11481;SDS011;5797;51.662;6.748;2022-08-19T06:43:07;23.03;;;16.60;;
11481;SDS011;5797;51.662;6.748;2022-08-19T06:45:36;22.50;;;16.97;;
11481;SDS011;5797;51.662;6.748;2022-08-19T06:48:06;24.50;;;18.07;;
11481;SDS011;5797;51.662;6.748;2022-08-19T06:50:36;27.40;;;19.90;;
11481;SDS011;5797;51.662;6.748;2022-08-19T06:53:05;27.00;;;20.67;;
11481;SDS011;5797;51.662;6.748;2022-08-19T06:55:33;28.77;;;22.00;;
11481;SDS011;5797;51.662;6.748;2022-08-19T06:58:01;30.57;;;21.70;;
11481;SDS011;5797;51.662;6.748;2022-08-19T07:00:30;33.33;;;22.73;;
11481;SDS011;5797;51.662;6.748;2022-08-19T07:02:58;38.23;;;24.83;;
11481;SDS011;5797;51.662;6.748;2022-08-19T07:05:32;33.63;;;22.60;;
11481;SDS011;5797;51.662;6.748;2022-08-19T07:08:04;33.43;;;23.47;;
11481;SDS011;5797;51.662;6.748;2022-08-19T07:10:33;35.07;;;24.67;;
11481;SDS011;5797;51.662;6.748;2022-08-19T07:13:02;34.97;;;25.07;;
11481;SDS011;5797;51.662;6.748;2022-08-19T07:15:30;35.23;;;25.70;;
11481;SDS011;5797;51.662;6.748;2022-08-19T07:17:58;34.50;;;24.83;;
11481;SDS011;5797;51.662;6.748;2022-08-19T07:20:26;39.77;;;26.60;;
11481;SDS011;5797;51.662;6.748;2022-08-19T07:22:55;37.77;;;26.37;;
11481;SDS011;5797;51.662;6.748;2022-08-19T07:25:23;35.37;;;25.10;;
11481;SDS011;5797;51.662;6.748;2022-08-19T07:27:58;35.73;;;26.90;;
11481;SDS011;5797;51.662;6.748;2022-08-19T07:30:25;36.73;;;26.63;;
11481;SDS011;5797;51.662;6.748;2022-08-19T07:32:53;40.23;;;28.33;;
11481;SDS011;5797;51.662;6.748;2022-08-19T07:35:22;40.93;;;27.43;;
11481;SDS011;5797;51.662;6.748;2022-08-19T07:37:51;37.10;;;26.77;;
11481;SDS011;5797;51.662;6.748;2022-08-19T07:40:20;36.30;;;26.87;;
11481;SDS011;5797;51.662;6.748;2022-08-19T07:42:48;41.80;;;26.40;;
11481;SDS011;5797;51.662;6.748;2022-08-19T07:45:16;38.30;;;26.70;;
11481;SDS011;5797;51.662;6.748;2022-08-19T07:47:44;34.80;;;25.27;;
11481;SDS011;5797;51.662;6.748;2022-08-19T07:50:16;33.97;;;23.97;;
11481;SDS011;5797;51.662;6.748;2022-08-19T07:52:45;33.83;;;25.47;;
11481;SDS011;5797;51.662;6.748;2022-08-19T07:55:16;31.33;;;22.83;;
11481;SDS011;5797;51.662;6.748;2022-08-19T07:58:07;35.47;;;24.53;;
11481;SDS011;5797;51.662;6.748;2022-08-19T08:00:35;34.67;;;25.37;;
11481;SDS011;5797;51.662;6.748;2022-08-19T08:03:03;34.87;;;24.47;;
11481;SDS011;5797;51.662;6.748;2022-08-19T08:05:31;33.47;;;23.30;;
11481;SDS011;5797;51.662;6.748;2022-08-19T08:08:17;32.43;;;23.23;;
11481;SDS011;5797;51.662;6.748;2022-08-19T08:11:02;30.03;;;22.80;;
11481;SDS011;5797;51.662;6.748;2022-08-19T08:13:34;29.97;;;21.70;;
11481;SDS011;5797;51.662;6.748;2022-08-19T08:16:04;38.23;;;24.00;;
11481;SDS011;5797;51.662;6.748;2022-08-19T08:18:35;28.70;;;22.33;;
11481;SDS011;5797;51.662;6.748;2022-08-19T08:21:08;31.03;;;22.27;;
11481;SDS011;5797;51.662;6.748;2022-08-19T08:23:36;32.27;;;24.33;;
11481;SDS011;5797;51.662;6.748;2022-08-19T08:26:05;34.50;;;24.47;;
11481;SDS011;5797;51.662;6.748;2022-08-19T08:28:34;36.87;;;24.97;;
11481;SDS011;5797;51.662;6.748;2022-08-19T08:31:03;34.97;;;24.20;;
11481;SDS011;5797;51.662;6.748;2022-08-19T08:33:35;33.33;;;24.80;;
11481;SDS011;5797;51.662;6.748;2022-08-19T08:36:04;32.53;;;24.23;;
11481;SDS011;5797;51.662;6.748;2022-08-19T08:38:32;28.00;;;21.73;;
11481;SDS011;5797;51.662;6.748;2022-08-19T08:41:09;32.70;;;22.23;;
11481;SDS011;5797;51.662;6.748;2022-08-19T08:43:48;30.40;;;22.20;;
11481;SDS011;5797;51.662;6.748;2022-08-19T08:46:19;36.33;;;23.80;;
11481;SDS011;5797;51.662;6.748;2022-08-19T08:48:58;32.03;;;22.50;;
11481;SDS011;5797;51.662;6.748;2022-08-19T08:51:32;31.23;;;22.97;;
11481;SDS011;5797;51.662;6.748;2022-08-19T08:54:02;24.23;;;20.13;;
11481;SDS011;5797;51.662;6.748;2022-08-19T08:56:33;26.40;;;20.00;;
11481;SDS011;5797;51.662;6.748;2022-08-19T08:59:03;25.70;;;19.08;;
11481;SDS011;5797;51.662;6.748;2022-08-19T09:01:34;24.17;;;18.10;;
11481;SDS011;5797;51.662;6.748;2022-08-19T09:04:03;26.55;;;19.40;;
11481;SDS011;5797;51.662;6.748;2022-08-19T09:06:32;21.52;;;17.55;;
11481;SDS011;5797;51.662;6.748;2022-08-19T09:09:12;21.10;;;16.27;;
11481;SDS011;5797;51.662;6.748;2022-08-19T09:11:48;22.55;;;18.75;;
11481;SDS011;5797;51.662;6.748;2022-08-19T09:14:31;19.35;;;15.18;;
11481;SDS011;5797;51.662;6.748;2022-08-19T09:17:16;23.98;;;18.40;;
11481;SDS011;5797;51.662;6.748;2022-08-19T09:19:52;21.77;;;16.52;;
11481;SDS011;5797;51.662;6.748;2022-08-19T09:22:21;21.92;;;17.10;;
11481;SDS011;5797;51.662;6.748;2022-08-19T09:24:51;23.38;;;17.13;;
11481;SDS011;5797;51.662;6.748;2022-08-19T09:27:20;21.42;;;16.27;;
11481;SDS011;5797;51.662;6.748;2022-08-19T09:30:02;22.08;;;16.52;;
11481;SDS011;5797;51.662;6.748;2022-08-19T09:32:30;20.65;;;15.20;;
11481;SDS011;5797;51.662;6.748;2022-08-19T09:34:58;25.27;;;18.63;;
11481;SDS011;5797;51.662;6.748;2022-08-19T09:37:27;21.55;;;15.98;;
11481;SDS011;5797;51.662;6.748;2022-08-19T09:39:55;20.45;;;16.13;;
11481;SDS011;5797;51.662;6.748;2022-08-19T09:42:24;24.17;;;16.65;;
11481;SDS011;5797;51.662;6.748;2022-08-19T09:44:55;20.35;;;16.30;;
11481;SDS011;5797;51.662;6.748;2022-08-19T09:47:24;20.90;;;16.73;;
11481;SDS011;5797;51.662;6.748;2022-08-19T09:49:52;27.33;;;17.13;;
11481;SDS011;5797;51.662;6.748;2022-08-19T09:52:21;20.25;;;17.88;;
11481;SDS011;5797;51.662;6.748;2022-08-19T09:54:51;24.83;;;16.50;;
11481;SDS011;5797;51.662;6.748;2022-08-19T09:57:19;20.42;;;16.88;;
11481;SDS011;5797;51.662;6.748;2022-08-19T09:59:47;32.78;;;20.65;;
11481;SDS011;5797;51.662;6.748;2022-08-19T10:02:15;24.45;;;18.30;;
11481;SDS011;5797;51.662;6.748;2022-08-19T10:04:48;28.38;;;20.23;;
11481;SDS011;5797;51.662;6.748;2022-08-19T10:07:34;22.45;;;17.10;;
11481;SDS011;5797;51.662;6.748;2022-08-19T10:10:02;21.98;;;16.60;;
11481;SDS011;5797;51.662;6.748;2022-08-19T10:12:31;24.60;;;19.55;;
11481;SDS011;5797;51.662;6.748;2022-08-19T10:14:59;25.10;;;19.05;;
11481;SDS011;5797;51.662;6.748;2022-08-19T10:17:27;23.38;;;17.45;;
11481;SDS011;5797;51.662;6.748;2022-08-19T10:20:00;25.98;;;20.13;;
11481;SDS011;5797;51.662;6.748;2022-08-19T10:22:29;32.00;;;21.58;;
11481;SDS011;5797;51.662;6.748;2022-08-19T10:24:56;32.10;;;22.33;;
11481;SDS011;5797;51.662;6.748;2022-08-19T10:27:25;27.40;;;21.17;;
11481;SDS011;5797;51.662;6.748;2022-08-19T10:29:53;28.40;;;21.20;;
11481;SDS011;5797;51.662;6.748;2022-08-19T10:32:21;32.80;;;22.98;;
11481;SDS011;5797;51.662;6.748;2022-08-19T10:35:00;32.45;;;22.27;;
11481;SDS011;5797;51.662;6.748;2022-08-19T10:37:30;27.73;;;21.00;;
11481;SDS011;5797;51.662;6.748;2022-08-19T10:39:59;27.83;;;20.88;;
11481;SDS011;5797;51.662;6.748;2022-08-19T10:42:28;26.58;;;20.17;;
11481;SDS011;5797;51.662;6.748;2022-08-19T10:44:57;32.08;;;22.38;;
11481;SDS011;5797;51.662;6.748;2022-08-19T10:47:25;25.50;;;20.20;;
11481;SDS011;5797;51.662;6.748;2022-08-19T10:49:57;24.08;;;19.13;;
11481;SDS011;5797;51.662;6.748;2022-08-19T10:52:44;25.35;;;19.13;;
11481;SDS011;5797;51.662;6.748;2022-08-19T10:55:15;23.75;;;18.17;;
11481;SDS011;5797;51.662;6.748;2022-08-19T10:58:02;23.00;;;18.65;;
11481;SDS011;5797;51.662;6.748;2022-08-19T11:00:30;25.85;;;16.80;;
11481;SDS011;5797;51.662;6.748;2022-08-19T11:02:58;26.42;;;17.02;;
11481;SDS011;5797;51.662;6.748;2022-08-19T11:05:26;21.15;;;17.35;;
11481;SDS011;5797;51.662;6.748;2022-08-19T11:07:55;21.75;;;16.15;;
11481;SDS011;5797;51.662;6.748;2022-08-19T11:10:23;18.98;;;15.68;;
11481;SDS011;5797;51.662;6.748;2022-08-19T11:12:51;19.50;;;13.85;;
11481;SDS011;5797;51.662;6.748;2022-08-19T11:15:20;18.85;;;13.88;;
11481;SDS011;5797;51.662;6.748;2022-08-19T11:17:48;15.77;;;10.70;;
11481;SDS011;5797;51.662;6.748;2022-08-19T11:20:20;14.15;;;12.05;;
11481;SDS011;5797;51.662;6.748;2022-08-19T11:22:51;12.23;;;10.35;;
11481;SDS011;5797;51.662;6.748;2022-08-19T11:25:21;20.88;;;11.82;;
11481;SDS011;5797;51.662;6.748;2022-08-19T11:27:49;13.90;;;10.48;;
11481;SDS011;5797;51.662;6.748;2022-08-19T11:30:18;10.50;;;9.30;;
11481;SDS011;5797;51.662;6.748;2022-08-19T11:32:46;9.18;;;7.38;;
11481;SDS011;5797;51.662;6.748;2022-08-19T11:35:17;9.07;;;7.85;;
11481;SDS011;5797;51.662;6.748;2022-08-19T11:37:46;9.88;;;8.82;;
11481;SDS011;5797;51.662;6.748;2022-08-19T11:40:14;12.02;;;7.78;;
11481;SDS011;5797;51.662;6.748;2022-08-19T11:42:43;9.77;;;8.02;;
11481;SDS011;5797;51.662;6.748;2022-08-19T11:45:23;8.88;;;7.30;;
11481;SDS011;5797;51.662;6.748;2022-08-19T11:47:51;8.63;;;6.50;;
11481;SDS011;5797;51.662;6.748;2022-08-19T11:50:20;7.47;;;6.68;;
11481;SDS011;5797;51.662;6.748;2022-08-19T11:52:49;7.55;;;6.35;;
11481;SDS011;5797;51.662;6.748;2022-08-19T11:55:17;8.27;;;6.80;;
11481;SDS011;5797;51.662;6.748;2022-08-19T11:57:47;8.07;;;5.78;;
11481;SDS011;5797;51.662;6.748;2022-08-19T12:00:15;8.60;;;7.18;;
11481;SDS011;5797;51.662;6.748;2022-08-19T12:02:43;9.00;;;7.40;;
11481;SDS011;5797;51.662;6.748;2022-08-19T12:05:11;8.57;;;7.15;;
11481;SDS011;5797;51.662;6.748;2022-08-19T12:07:38;12.43;;;7.50;;
11481;SDS011;5797;51.662;6.748;2022-08-19T12:10:10;11.55;;;7.15;;
11481;SDS011;5797;51.662;6.748;2022-08-19T12:12:38;8.68;;;7.78;;
11481;SDS011;5797;51.662;6.748;2022-08-19T12:15:10;7.90;;;6.55;;
11481;SDS011;5797;51.662;6.748;2022-08-19T12:17:38;10.00;;;7.13;;
11481;SDS011;5797;51.662;6.748;2022-08-19T12:20:08;11.57;;;7.35;;
11481;SDS011;5797;51.662;6.748;2022-08-19T12:22:37;6.50;;;5.90;;
11481;SDS011;5797;51.662;6.748;2022-08-19T12:25:08;7.40;;;6.40;;
11481;SDS011;5797;51.662;6.748;2022-08-19T12:27:37;10.32;;;8.05;;
11481;SDS011;5797;51.662;6.748;2022-08-19T12:30:10;8.48;;;6.68;;
11481;SDS011;5797;51.662;6.748;2022-08-19T12:32:39;9.75;;;7.15;;
11481;SDS011;5797;51.662;6.748;2022-08-19T12:35:08;8.43;;;6.70;;
11481;SDS011;5797;51.662;6.748;2022-08-19T12:37:43;8.68;;;5.63;;
11481;SDS011;5797;51.662;6.748;2022-08-19T12:40:11;6.88;;;5.90;;
11481;SDS011;5797;51.662;6.748;2022-08-19T12:42:39;8.43;;;6.80;;
11481;SDS011;5797;51.662;6.748;2022-08-19T12:45:10;10.60;;;6.80;;
11481;SDS011;5797;51.662;6.748;2022-08-19T12:47:43;10.35;;;6.75;;
11481;SDS011;5797;51.662;6.748;2022-08-19T12:50:13;8.93;;;7.05;;
11481;SDS011;5797;51.662;6.748;2022-08-19T12:52:52;8.85;;;6.95;;
11481;SDS011;5797;51.662;6.748;2022-08-19T12:55:20;6.07;;;5.47;;
11481;SDS011;5797;51.662;6.748;2022-08-19T12:57:48;7.38;;;6.22;;
11481;SDS011;5797;51.662;6.748;2022-08-19T13:00:19;8.38;;;7.43;;
11481;SDS011;5797;51.662;6.748;2022-08-19T13:02:48;8.13;;;6.65;;
11481;SDS011;5797;51.662;6.748;2022-08-19T13:05:18;11.85;;;7.15;;
11481;SDS011;5797;51.662;6.748;2022-08-19T13:07:49;8.43;;;6.25;;
11481;SDS011;5797;51.662;6.748;2022-08-19T13:10:19;7.93;;;6.85;;
11481;SDS011;5797;51.662;6.748;2022-08-19T13:12:48;9.32;;;6.13;;
11481;SDS011;5797;51.662;6.748;2022-08-19T13:15:19;8.93;;;7.85;;
11481;SDS011;5797;51.662;6.748;2022-08-19T13:17:50;11.30;;;8.82;;
11481;SDS011;5797;51.662;6.748;2022-08-19T13:20:20;11.52;;;8.68;;
11481;SDS011;5797;51.662;6.748;2022-08-19T13:22:49;9.48;;;8.32;;
11481;SDS011;5797;51.662;6.748;2022-08-19T13:25:18;12.52;;;10.27;;
11481;SDS011;5797;51.662;6.748;2022-08-19T13:27:47;10.75;;;9.70;;
11481;SDS011;5797;51.662;6.748;2022-08-19T13:30:16;13.45;;;12.05;;
11481;SDS011;5797;51.662;6.748;2022-08-19T13:33:04;16.25;;;12.75;;
11481;SDS011;5797;51.662;6.748;2022-08-19T13:35:38;15.95;;;12.30;;
11481;SDS011;5797;51.662;6.748;2022-08-19T13:38:07;16.63;;;11.10;;
11481;SDS011;5797;51.662;6.748;2022-08-19T13:40:37;12.43;;;11.13;;
11481;SDS011;5797;51.662;6.748;2022-08-19T13:43:06;14.63;;;12.38;;
11481;SDS011;5797;51.662;6.748;2022-08-19T13:45:39;13.88;;;12.32;;
11481;SDS011;5797;51.662;6.748;2022-08-19T13:48:08;12.95;;;11.63;;
11481;SDS011;5797;51.662;6.748;2022-08-19T13:50:38;13.38;;;11.63;;
11481;SDS011;5797;51.662;6.748;2022-08-19T13:53:08;12.52;;;11.20;;
11481;SDS011;5797;51.662;6.748;2022-08-19T13:55:36;14.75;;;11.50;;
11481;SDS011;5797;51.662;6.748;2022-08-19T13:58:04;17.67;;;11.40;;
11481;SDS011;5797;51.662;6.748;2022-08-19T14:00:33;12.20;;;9.80;;
11481;SDS011;5797;51.662;6.748;2022-08-19T14:03:03;11.95;;;10.70;;
11481;SDS011;5797;51.662;6.748;2022-08-19T14:05:36;11.63;;;10.07;;
11481;SDS011;5797;51.662;6.748;2022-08-19T14:08:04;11.20;;;10.00;;
11481;SDS011;5797;51.662;6.748;2022-08-19T14:10:32;12.90;;;11.30;;
11481;SDS011;5797;51.662;6.748;2022-08-19T14:13:01;11.32;;;10.13;;
11481;SDS011;5797;51.662;6.748;2022-08-19T14:15:30;10.55;;;9.45;;
11481;SDS011;5797;51.662;6.748;2022-08-19T14:17:58;13.45;;;10.27;;
11481;SDS011;5797;51.662;6.748;2022-08-19T14:20:26;9.90;;;8.98;;
11481;SDS011;5797;51.662;6.748;2022-08-19T14:22:56;12.27;;;10.93;;
11481;SDS011;5797;51.662;6.748;2022-08-19T14:25:24;11.82;;;10.57;;
11481;SDS011;5797;51.662;6.748;2022-08-19T14:27:55;13.38;;;10.40;;
11481;SDS011;5797;51.662;6.748;2022-08-19T14:30:36;18.42;;;10.75;;
11481;SDS011;5797;51.662;6.748;2022-08-19T14:33:06;11.68;;;9.45;;
11481;SDS011;5797;51.662;6.748;2022-08-19T14:35:34;13.48;;;9.98;;
11481;SDS011;5797;51.662;6.748;2022-08-19T14:38:05;12.70;;;10.20;;
11481;SDS011;5797;51.662;6.748;2022-08-19T14:40:39;12.82;;;9.63;;
11481;SDS011;5797;51.662;6.748;2022-08-19T14:43:10;13.43;;;9.02;;
11481;SDS011;5797;51.662;6.748;2022-08-19T14:45:38;9.75;;;8.75;;
11481;SDS011;5797;51.662;6.748;2022-08-19T14:48:07;10.98;;;9.15;;
11481;SDS011;5797;51.662;6.748;2022-08-19T14:50:37;18.90;;;11.50;;
11481;SDS011;5797;51.662;6.748;2022-08-19T14:53:07;16.10;;;11.50;;
11481;SDS011;5797;51.662;6.748;2022-08-19T14:55:40;13.15;;;10.95;;
11481;SDS011;5797;51.662;6.748;2022-08-19T14:58:09;11.38;;;10.18;;
11481;SDS011;5797;51.662;6.748;2022-08-19T15:00:55;13.10;;;10.32;;